Latest Weather Observations for Fawkner Beacon

IDV60801

Issued at 5:02 pm EDT Thursday 29 January 2015 (issued every 30 minutes, with the page automatically refreshed every 10 minutes)

About weather observations | Map of weather stations | Latest weather observations for VIC | Other Formats
Station Details ID: 086376 Name: FAWKNER BEACON Lat: -37.91 Lon: 144.93 Height: 17.0 m
Data from the previous 72 hours. | See also: Recent months for locations in Victoria
Date/Time
EDT
Temp
°C
App
Temp
°C
Dew
Point
Rel
Hum
%
Delta-T
°C
Wind Press
QNH
hPa
Press
MSL
hPa
Rain
since 9 am
mm
Dir
 
Spd
km/h
Gust
km/h
Spd
kts
Gust
kts
29/05:00pm - - - - - SE 43 50 23 27 - - -
29/04:30pm - - - - - SE 43 50 23 27 - - -
29/04:00pm - - - - - SSE 43 50 23 27 - - -
29/03:30pm - - - - - SSE 44 50 24 27 - - -
29/03:00pm - - - - - SSE 41 48 22 26 - - -
29/02:30pm - - - - - SSE 41 48 22 26 - - -
29/02:00pm - - - - - SE 37 46 20 25 - - -
29/01:30pm - - - - - SE 32 43 17 23 - - -
29/01:00pm - - - - - SE 30 35 16 19 - - -
29/12:30pm - - - - - SE 30 33 16 18 - - -
29/12:00pm - - - - - SE 28 35 15 19 - - -
29/11:30am - - - - - SE 22 28 12 15 - - -
29/11:00am - - - - - E 24 28 13 15 - - -
29/10:30am - - - - - ESE 22 28 12 15 - - -
29/10:00am - - - - - E 28 35 15 19 - - -
29/09:30am - - - - - E 28 35 15 19 - - -
29/09:00am - - - - - E 30 39 16 21 - - -
29/08:30am - - - - - E 26 32 14 17 - - -
29/08:00am - - - - - E 24 30 13 16 - - -
29/07:30am - - - - - E 28 33 15 18 - - -
29/07:00am - - - - - E 26 32 14 17 - - -
29/06:30am - - - - - E 28 33 15 18 - - -
29/06:00am - - - - - E 26 35 14 19 - - -
29/05:30am - - - - - E 30 39 16 21 - - -
29/05:00am - - - - - E 26 35 14 19 - - -
29/04:30am - - - - - E 26 30 14 16 - - -
29/04:00am - - - - - E 28 33 15 18 - - -
29/03:30am - - - - - E 26 33 14 18 - - -
29/03:00am - - - - - E 30 35 16 19 - - -
29/02:30am - - - - - E 30 35 16 19 - - -
29/02:00am - - - - - E 32 39 17 21 - - -
29/01:30am - - - - - E 33 41 18 22 - - -
29/01:00am - - - - - E 33 43 18 23 - - -
29/12:30am - - - - - E 33 41 18 22 - - -
29/12:00am - - - - - E 33 44 18 24 - - -
 
Date/Time
EDT
Temp
°C
App
Temp
°C
Dew
Point
Rel
Hum
%
Delta-T
°C
Wind Press
QNH
hPa
Press
MSL
hPa
Rain
since 9 am
mm
Dir
 
Spd
km/h
Gust
km/h
Spd
kts
Gust
kts
28/11:30pm - - - - - E 41 50 22 27 - - -
28/11:00pm - - - - - E 43 50 23 27 - - -
28/10:30pm - - - - - E 41 50 22 27 - - -
28/10:00pm - - - - - E 39 44 21 24 - - -
28/09:30pm - - - - - ESE 41 48 22 26 - - -
28/09:00pm - - - - - ESE 44 48 24 26 - - -
28/08:30pm - - - - - ESE 44 52 24 28 - - -
28/08:00pm - - - - - SE 46 52 25 28 - - -
28/07:30pm - - - - - SE 46 54 25 29 - - -
28/07:00pm - - - - - SE 50 57 27 31 - - -
28/06:30pm - - - - - SE 52 61 28 33 - - -
28/06:00pm - - - - - SE 54 63 29 34 - - -
28/05:30pm - - - - - SE 54 63 29 34 - - -
28/05:00pm - - - - - SE 50 59 27 32 - - -
28/04:30pm - - - - - SE 50 59 27 32 - - -
28/04:00pm - - - - - SE 48 54 26 29 - - -
28/03:30pm - - - - - SE 46 54 25 29 - - -
28/03:00pm - - - - - SE 43 50 23 27 - - -
28/02:30pm - - - - - ESE 37 44 20 24 - - -
28/02:00pm - - - - - ESE 39 44 21 24 - - -
28/01:30pm - - - - - ESE 33 43 18 23 - - -
28/01:00pm - - - - - ESE 33 41 18 22 - - -
28/12:30pm - - - - - SE 33 41 18 22 - - -
28/12:00pm - - - - - ESE 37 44 20 24 - - -
28/11:30am - - - - - SE 35 44 19 24 - - -
28/11:00am - - - - - ESE 39 46 21 25 - - -
28/10:30am - - - - - E 39 48 21 26 - - -
28/10:00am - - - - - E 32 44 17 24 - - -
28/09:30am - - - - - ESE 32 39 17 21 - - -
28/09:00am - - - - - E 32 41 17 22 - - -
28/08:30am - - - - - E 30 35 16 19 - - -
28/08:00am - - - - - E 32 39 17 21 - - -
28/07:30am - - - - - E 28 32 15 17 - - -
28/07:00am - - - - - ESE 32 35 17 19 - - -
28/06:30am - - - - - E 22 28 12 15 - - -
28/06:00am - - - - - E 22 28 12 15 - - -
28/05:30am - - - - - ENE 17 24 9 13 - - -
28/05:00am - - - - - ENE 17 20 9 11 - - -
28/04:30am - - - - - ESE 22 26 12 14 - - -
28/04:00am - - - - - ESE 24 32 13 17 - - -
28/03:30am - - - - - ESE 28 33 15 18 - - -
28/03:00am - - - - - ESE 28 33 15 18 - - -
28/02:30am - - - - - ESE 28 33 15 18 - - -
28/02:00am - - - - - SE 30 39 16 21 - - -
28/01:30am - - - - - SE 28 35 15 19 - - -
28/01:00am - - - - - SE 30 39 16 21 - - -
28/12:30am - - - - - SE 30 39 16 21 - - -
28/12:00am - - - - - SE 32 43 17 23 - - -
 
Date/Time
EDT
Temp
°C
App
Temp
°C
Dew
Point
Rel
Hum
%
Delta-T
°C
Wind Press
QNH
hPa
Press
MSL
hPa
Rain
since 9 am
mm
Dir
 
Spd
km/h
Gust
km/h
Spd
kts
Gust
kts
27/11:30pm - - - - - SE 32 39 17 21 - - -
27/11:00pm - - - - - SE 33 41 18 22 - - -
27/10:30pm - - - - - SE 35 44 19 24 - - -
27/10:00pm - - - - - SE 33 41 18 22 - - -
27/09:30pm - - - - - SE 32 41 17 22 - - -
27/09:00pm - - - - - SE 32 39 17 21 - - -
27/08:30pm - - - - - SSE 35 43 19 23 - - -
27/08:00pm - - - - - SE 33 41 18 22 - - -
27/07:30pm - - - - - SE 35 46 19 25 - - -
27/07:00pm - - - - - SSE 35 41 19 22 - - -
27/06:30pm - - - - - SSE 32 41 17 22 - - -
27/06:00pm - - - - - SSE 33 43 18 23 - - -
27/05:30pm - - - - - SSE 41 48 22 26 - - -
27/05:00pm - - - - - SSE 37 46 20 25 - - -
27/04:30pm - - - - - SSE 37 46 20 25 - - -
27/04:00pm - - - - - SSE 35 44 19 24 - - -
27/03:30pm - - - - - SSE 35 43 19 23 - - -
27/03:00pm - - - - - SE 33 43 18 23 - - -
27/02:30pm - - - - - SE 28 39 15 21 - - -
27/02:00pm - - - - - SE 24 32 13 17 - - -
27/01:30pm - - - - - SE 28 33 15 18 - - -
27/01:00pm - - - - - SE 28 33 15 18 - - -
27/12:30pm - - - - - SE 28 35 15 19 - - -
27/12:00pm - - - - - SE 32 35 17 19 - - -
27/11:30am - - - - - SE 28 35 15 19 - - -
27/11:00am - - - - - SE 26 32 14 17 - - -
27/10:30am - - - - - SE 24 30 13 16 - - -
27/10:00am - - - - - ESE 24 30 13 16 - - -
27/09:30am - - - - - ESE 28 35 15 19 - - -
27/09:00am - - - - - ESE 28 35 15 19 - - -
27/08:30am - - - - - SE 30 35 16 19 - - -
27/08:00am - - - - - SE 30 39 16 21 - - -
27/07:30am - - - - - SE 30 35 16 19 - - -
27/07:00am - - - - - SE 30 39 16 21 - - -
27/06:30am - - - - - ESE 30 35 16 19 - - -
27/06:00am - - - - - SE 30 35 16 19 - - -
27/05:30am - - - - - ESE 30 39 16 21 - - -
27/05:00am - - - - - ESE 32 41 17 22 - - -
27/04:30am - - - - - ESE 32 44 17 24 - - -
27/04:00am - - - - - ESE 32 35 17 19 - - -
27/03:30am - - - - - ESE 28 35 15 19 - - -
27/03:00am - - - - - ESE 30 39 16 21 - - -
27/02:30am - - - - - ESE 30 35 16 19 - - -
27/02:00am - - - - - ESE 30 35 16 19 - - -
27/01:30am - - - - - ESE 32 41 17 22 - - -
27/01:00am - - - - - ESE 32 41 17 22 - - -
27/12:30am - - - - - ESE 30 39 16 21 - - -
27/12:00am - - - - - ESE 30 39 16 21 - - -
 
Date/Time
EDT
Temp
°C
App
Temp
°C
Dew
Point
Rel
Hum
%
Delta-T
°C
Wind Press
QNH
hPa
Press
MSL
hPa
Rain
since 9 am
mm
Dir
 
Spd
km/h
Gust
km/h
Spd
kts
Gust
kts
26/11:30pm - - - - - ESE 32 39 17 21 - - -
26/11:00pm - - - - - ESE 32 41 17 22 - - -
26/10:30pm - - - - - ESE 32 43 17 23 - - -
26/10:00pm - - - - - ESE 32 41 17 22 - - -
26/09:30pm - - - - - SE 32 41 17 22 - - -
26/09:00pm - - - - - SE 32 41 17 22 - - -
26/08:30pm - - - - - SE 32 39 17 21 - - -
26/08:00pm - - - - - SE 32 43 17 23 - - -
26/07:30pm - - - - - SE 33 43 18 23 - - -
26/07:00pm - - - - - SE 33 43 18 23 - - -
26/06:30pm - - - - - SSE 32 41 17 22 - - -
26/06:00pm - - - - - SSE 35 41 19 22 - - -
26/05:30pm - - - - - SSE 37 44 20 24 - - -

Other Formats:

Comma delimited format used in spreadsheet applications
http://www.bom.gov.au/fwo/IDV60801/IDV60801.95872.axf

JavaScript Object Notation format (JSON) in row-major order
http://www.bom.gov.au/fwo/IDV60801/IDV60801.95872.json